sensor_id;sensor_type;location;lat;lon;timestamp;P1;durP1;ratioP1;P2;durP2;ratioP2
77278;SDS011;66332;50.436;15.378;2024-03-08T00:03:08;34.13;;;13.82;;
77278;SDS011;66332;50.436;15.378;2024-03-08T00:07:50;31.98;;;12.70;;
77278;SDS011;66332;50.436;15.378;2024-03-08T00:12:31;30.38;;;13.02;;
77278;SDS011;66332;50.436;15.378;2024-03-08T00:17:12;27.67;;;11.55;;
77278;SDS011;66332;50.436;15.378;2024-03-08T00:21:53;30.63;;;13.23;;
77278;SDS011;66332;50.436;15.378;2024-03-08T00:26:34;35.72;;;14.70;;
77278;SDS011;66332;50.436;15.378;2024-03-08T00:31:14;29.58;;;12.40;;
77278;SDS011;66332;50.436;15.378;2024-03-08T00:35:58;30.10;;;12.52;;
77278;SDS011;66332;50.436;15.378;2024-03-08T00:40:39;24.42;;;10.88;;
77278;SDS011;66332;50.436;15.378;2024-03-08T00:45:20;32.03;;;12.40;;
77278;SDS011;66332;50.436;15.378;2024-03-08T00:50:04;29.85;;;12.38;;
77278;SDS011;66332;50.436;15.378;2024-03-08T00:54:45;32.30;;;14.07;;
77278;SDS011;66332;50.436;15.378;2024-03-08T00:59:25;38.80;;;14.70;;
77278;SDS011;66332;50.436;15.378;2024-03-08T01:04:06;36.25;;;13.50;;
77278;SDS011;66332;50.436;15.378;2024-03-08T01:08:48;31.52;;;12.82;;
77278;SDS011;66332;50.436;15.378;2024-03-08T01:13:29;28.08;;;13.77;;
77278;SDS011;66332;50.436;15.378;2024-03-08T01:18:09;33.67;;;14.23;;
77278;SDS011;66332;50.436;15.378;2024-03-08T01:22:50;34.20;;;13.52;;
77278;SDS011;66332;50.436;15.378;2024-03-08T01:27:32;35.03;;;13.80;;
77278;SDS011;66332;50.436;15.378;2024-03-08T01:32:13;40.70;;;15.25;;
77278;SDS011;66332;50.436;15.378;2024-03-08T01:36:55;35.10;;;14.57;;
77278;SDS011;66332;50.436;15.378;2024-03-08T01:41:38;32.40;;;14.07;;
77278;SDS011;66332;50.436;15.378;2024-03-08T01:46:20;32.92;;;14.60;;
77278;SDS011;66332;50.436;15.378;2024-03-08T01:51:05;39.38;;;14.85;;
77278;SDS011;66332;50.436;15.378;2024-03-08T01:55:49;35.45;;;15.60;;
77278;SDS011;66332;50.436;15.378;2024-03-08T02:00:30;32.85;;;13.13;;
77278;SDS011;66332;50.436;15.378;2024-03-08T02:05:13;35.40;;;14.68;;
77278;SDS011;66332;50.436;15.378;2024-03-08T02:09:55;32.42;;;13.90;;
77278;SDS011;66332;50.436;15.378;2024-03-08T02:14:36;32.05;;;13.93;;
77278;SDS011;66332;50.436;15.378;2024-03-08T02:19:17;34.53;;;14.88;;
77278;SDS011;66332;50.436;15.378;2024-03-08T02:23:57;33.67;;;13.13;;
77278;SDS011;66332;50.436;15.378;2024-03-08T02:28:38;34.20;;;14.43;;
77278;SDS011;66332;50.436;15.378;2024-03-08T02:33:20;33.72;;;13.88;;
77278;SDS011;66332;50.436;15.378;2024-03-08T02:38:00;29.35;;;12.30;;
77278;SDS011;66332;50.436;15.378;2024-03-08T02:42:42;31.33;;;13.73;;
77278;SDS011;66332;50.436;15.378;2024-03-08T02:47:23;23.08;;;9.98;;
77278;SDS011;66332;50.436;15.378;2024-03-08T02:52:04;27.55;;;10.23;;
77278;SDS011;66332;50.436;15.378;2024-03-08T02:56:45;35.25;;;12.57;;
77278;SDS011;66332;50.436;15.378;2024-03-08T03:01:31;32.40;;;14.27;;
77278;SDS011;66332;50.436;15.378;2024-03-08T03:06:12;32.00;;;13.63;;
77278;SDS011;66332;50.436;15.378;2024-03-08T03:10:53;32.45;;;13.45;;
77278;SDS011;66332;50.436;15.378;2024-03-08T03:15:36;34.33;;;13.73;;
77278;SDS011;66332;50.436;15.378;2024-03-08T03:20:17;32.50;;;12.55;;
77278;SDS011;66332;50.436;15.378;2024-03-08T03:25:12;31.60;;;12.80;;
77278;SDS011;66332;50.436;15.378;2024-03-08T03:29:53;30.90;;;12.85;;
77278;SDS011;66332;50.436;15.378;2024-03-08T03:34:36;31.65;;;12.98;;
77278;SDS011;66332;50.436;15.378;2024-03-08T03:39:16;30.58;;;14.20;;
77278;SDS011;66332;50.436;15.378;2024-03-08T03:44:00;31.48;;;12.68;;
77278;SDS011;66332;50.436;15.378;2024-03-08T03:48:41;30.27;;;13.07;;
77278;SDS011;66332;50.436;15.378;2024-03-08T03:53:22;34.13;;;13.75;;
77278;SDS011;66332;50.436;15.378;2024-03-08T03:58:03;36.28;;;13.07;;
77278;SDS011;66332;50.436;15.378;2024-03-08T04:02:44;32.22;;;13.02;;
77278;SDS011;66332;50.436;15.378;2024-03-08T04:07:25;27.58;;;12.68;;
77278;SDS011;66332;50.436;15.378;2024-03-08T04:12:06;33.42;;;14.18;;
77278;SDS011;66332;50.436;15.378;2024-03-08T04:16:47;32.38;;;12.77;;
77278;SDS011;66332;50.436;15.378;2024-03-08T04:21:29;30.90;;;12.65;;
77278;SDS011;66332;50.436;15.378;2024-03-08T04:26:11;22.95;;;10.68;;
77278;SDS011;66332;50.436;15.378;2024-03-08T04:30:51;31.42;;;12.68;;
77278;SDS011;66332;50.436;15.378;2024-03-08T04:35:32;33.05;;;13.30;;
77278;SDS011;66332;50.436;15.378;2024-03-08T04:40:13;34.47;;;14.55;;
77278;SDS011;66332;50.436;15.378;2024-03-08T04:44:54;32.08;;;12.95;;
77278;SDS011;66332;50.436;15.378;2024-03-08T04:49:35;36.85;;;15.07;;
77278;SDS011;66332;50.436;15.378;2024-03-08T04:54:16;31.40;;;13.32;;
77278;SDS011;66332;50.436;15.378;2024-03-08T04:58:57;33.13;;;13.07;;
77278;SDS011;66332;50.436;15.378;2024-03-08T05:03:38;33.22;;;13.60;;
77278;SDS011;66332;50.436;15.378;2024-03-08T05:08:19;32.67;;;15.27;;
77278;SDS011;66332;50.436;15.378;2024-03-08T05:13:00;35.90;;;13.53;;
77278;SDS011;66332;50.436;15.378;2024-03-08T05:17:41;34.08;;;13.98;;
77278;SDS011;66332;50.436;15.378;2024-03-08T05:22:22;30.20;;;13.05;;
77278;SDS011;66332;50.436;15.378;2024-03-08T05:27:03;33.20;;;13.48;;
77278;SDS011;66332;50.436;15.378;2024-03-08T05:36:32;37.55;;;14.25;;
77278;SDS011;66332;50.436;15.378;2024-03-08T05:41:13;34.00;;;13.75;;
77278;SDS011;66332;50.436;15.378;2024-03-08T05:45:55;33.33;;;13.80;;
77278;SDS011;66332;50.436;15.378;2024-03-08T05:50:35;37.33;;;14.30;;
77278;SDS011;66332;50.436;15.378;2024-03-08T05:55:16;33.67;;;14.48;;
77278;SDS011;66332;50.436;15.378;2024-03-08T05:59:57;33.22;;;12.63;;
77278;SDS011;66332;50.436;15.378;2024-03-08T06:04:37;32.95;;;12.90;;
77278;SDS011;66332;50.436;15.378;2024-03-08T06:09:18;35.97;;;14.23;;
77278;SDS011;66332;50.436;15.378;2024-03-08T06:14:03;34.75;;;14.23;;
77278;SDS011;66332;50.436;15.378;2024-03-08T06:18:44;30.83;;;12.57;;
77278;SDS011;66332;50.436;15.378;2024-03-08T06:23:25;36.17;;;14.95;;
77278;SDS011;66332;50.436;15.378;2024-03-08T06:28:05;33.08;;;13.45;;
77278;SDS011;66332;50.436;15.378;2024-03-08T06:32:46;27.02;;;12.13;;
77278;SDS011;66332;50.436;15.378;2024-03-08T06:37:27;31.67;;;11.30;;
77278;SDS011;66332;50.436;15.378;2024-03-08T06:42:08;33.05;;;13.07;;
77278;SDS011;66332;50.436;15.378;2024-03-08T06:46:51;33.17;;;12.55;;
77278;SDS011;66332;50.436;15.378;2024-03-08T06:51:31;33.78;;;13.30;;
77278;SDS011;66332;50.436;15.378;2024-03-08T06:56:12;29.75;;;12.68;;
77278;SDS011;66332;50.436;15.378;2024-03-08T07:00:53;28.48;;;12.25;;
77278;SDS011;66332;50.436;15.378;2024-03-08T07:05:38;27.90;;;10.90;;
77278;SDS011;66332;50.436;15.378;2024-03-08T07:15:05;28.75;;;12.18;;
77278;SDS011;66332;50.436;15.378;2024-03-08T07:19:46;22.98;;;10.45;;
77278;SDS011;66332;50.436;15.378;2024-03-08T07:24:27;24.30;;;10.23;;
77278;SDS011;66332;50.436;15.378;2024-03-08T07:29:18;30.90;;;12.88;;
77278;SDS011;66332;50.436;15.378;2024-03-08T07:33:59;25.42;;;11.00;;
77278;SDS011;66332;50.436;15.378;2024-03-08T07:38:40;27.95;;;12.55;;
77278;SDS011;66332;50.436;15.378;2024-03-08T07:43:21;31.55;;;12.55;;
77278;SDS011;66332;50.436;15.378;2024-03-08T07:48:02;24.13;;;11.20;;
77278;SDS011;66332;50.436;15.378;2024-03-08T07:52:44;43.03;;;16.83;;
77278;SDS011;66332;50.436;15.378;2024-03-08T07:57:25;25.58;;;11.27;;
77278;SDS011;66332;50.436;15.378;2024-03-08T08:02:06;24.42;;;11.60;;
77278;SDS011;66332;50.436;15.378;2024-03-08T08:06:47;20.65;;;9.43;;
77278;SDS011;66332;50.436;15.378;2024-03-08T08:11:28;24.77;;;11.57;;
77278;SDS011;66332;50.436;15.378;2024-03-08T08:16:09;25.58;;;11.35;;
77278;SDS011;66332;50.436;15.378;2024-03-08T08:20:51;23.08;;;10.10;;
77278;SDS011;66332;50.436;15.378;2024-03-08T08:30:15;26.38;;;11.85;;
77278;SDS011;66332;50.436;15.378;2024-03-08T08:34:55;24.95;;;10.68;;
77278;SDS011;66332;50.436;15.378;2024-03-08T08:39:37;26.75;;;11.35;;
77278;SDS011;66332;50.436;15.378;2024-03-08T08:44:18;25.10;;;10.70;;
77278;SDS011;66332;50.436;15.378;2024-03-08T08:48:59;21.13;;;9.63;;
77278;SDS011;66332;50.436;15.378;2024-03-08T08:53:40;19.58;;;8.73;;
77278;SDS011;66332;50.436;15.378;2024-03-08T08:58:23;23.27;;;10.38;;
77278;SDS011;66332;50.436;15.378;2024-03-08T09:03:04;26.05;;;10.77;;
77278;SDS011;66332;50.436;15.378;2024-03-08T09:07:47;22.40;;;9.57;;
77278;SDS011;66332;50.436;15.378;2024-03-08T09:12:27;18.73;;;8.73;;
77278;SDS011;66332;50.436;15.378;2024-03-08T09:17:08;23.08;;;10.57;;
77278;SDS011;66332;50.436;15.378;2024-03-08T09:21:49;22.65;;;10.30;;
77278;SDS011;66332;50.436;15.378;2024-03-08T09:26:32;21.33;;;8.60;;
77278;SDS011;66332;50.436;15.378;2024-03-08T09:31:13;18.90;;;9.00;;
77278;SDS011;66332;50.436;15.378;2024-03-08T09:35:55;21.65;;;10.93;;
77278;SDS011;66332;50.436;15.378;2024-03-08T09:40:38;21.33;;;10.32;;
77278;SDS011;66332;50.436;15.378;2024-03-08T09:45:19;24.17;;;10.30;;
77278;SDS011;66332;50.436;15.378;2024-03-08T09:50:05;21.00;;;10.35;;
77278;SDS011;66332;50.436;15.378;2024-03-08T09:54:49;21.20;;;11.27;;
77278;SDS011;66332;50.436;15.378;2024-03-08T09:59:30;20.48;;;9.07;;
77278;SDS011;66332;50.436;15.378;2024-03-08T10:04:17;20.88;;;10.18;;
77278;SDS011;66332;50.436;15.378;2024-03-08T10:08:58;19.48;;;9.07;;
77278;SDS011;66332;50.436;15.378;2024-03-08T10:13:39;20.08;;;8.73;;
77278;SDS011;66332;50.436;15.378;2024-03-08T10:18:21;20.45;;;9.48;;
77278;SDS011;66332;50.436;15.378;2024-03-08T10:23:02;15.48;;;6.93;;
77278;SDS011;66332;50.436;15.378;2024-03-08T10:27:45;16.23;;;6.50;;
77278;SDS011;66332;50.436;15.378;2024-03-08T10:32:26;16.52;;;6.82;;
77278;SDS011;66332;50.436;15.378;2024-03-08T10:41:53;15.93;;;7.05;;
77278;SDS011;66332;50.436;15.378;2024-03-08T10:51:25;16.67;;;7.75;;
77278;SDS011;66332;50.436;15.378;2024-03-08T10:56:06;17.00;;;7.72;;
77278;SDS011;66332;50.436;15.378;2024-03-08T11:10:19;15.98;;;7.53;;
77278;SDS011;66332;50.436;15.378;2024-03-08T11:15:01;18.38;;;8.52;;
77278;SDS011;66332;50.436;15.378;2024-03-08T11:19:57;17.48;;;7.97;;
77278;SDS011;66332;50.436;15.378;2024-03-08T11:24:45;18.52;;;8.23;;
77278;SDS011;66332;50.436;15.378;2024-03-08T11:34:16;17.30;;;7.75;;
77278;SDS011;66332;50.436;15.378;2024-03-08T11:38:57;20.48;;;8.52;;
77278;SDS011;66332;50.436;15.378;2024-03-08T11:43:38;18.40;;;9.07;;
77278;SDS011;66332;50.436;15.378;2024-03-08T11:48:20;18.65;;;9.23;;
77278;SDS011;66332;50.436;15.378;2024-03-08T11:53:04;23.17;;;9.45;;
77278;SDS011;66332;50.436;15.378;2024-03-08T11:57:45;20.50;;;9.43;;
77278;SDS011;66332;50.436;15.378;2024-03-08T12:02:27;21.42;;;9.90;;
77278;SDS011;66332;50.436;15.378;2024-03-08T12:07:09;19.15;;;9.15;;
77278;SDS011;66332;50.436;15.378;2024-03-08T12:11:51;19.13;;;9.25;;
77278;SDS011;66332;50.436;15.378;2024-03-08T12:16:32;22.67;;;9.30;;
77278;SDS011;66332;50.436;15.378;2024-03-08T12:25:58;20.27;;;8.88;;
77278;SDS011;66332;50.436;15.378;2024-03-08T12:30:45;23.02;;;10.73;;
77278;SDS011;66332;50.436;15.378;2024-03-08T12:35:29;20.70;;;10.25;;
77278;SDS011;66332;50.436;15.378;2024-03-08T12:40:11;19.85;;;9.35;;
77278;SDS011;66332;50.436;15.378;2024-03-08T12:44:54;19.20;;;9.75;;
77278;SDS011;66332;50.436;15.378;2024-03-08T12:49:35;18.98;;;8.57;;
77278;SDS011;66332;50.436;15.378;2024-03-08T12:54:16;21.45;;;10.00;;
77278;SDS011;66332;50.436;15.378;2024-03-08T12:58:57;16.80;;;8.20;;
77278;SDS011;66332;50.436;15.378;2024-03-08T13:03:38;18.65;;;9.13;;
77278;SDS011;66332;50.436;15.378;2024-03-08T13:08:20;19.05;;;9.18;;
77278;SDS011;66332;50.436;15.378;2024-03-08T13:13:02;20.13;;;9.00;;
77278;SDS011;66332;50.436;15.378;2024-03-08T13:17:43;19.63;;;8.35;;
77278;SDS011;66332;50.436;15.378;2024-03-08T13:27:06;17.83;;;7.47;;
77278;SDS011;66332;50.436;15.378;2024-03-08T13:31:59;18.33;;;7.72;;
77278;SDS011;66332;50.436;15.378;2024-03-08T13:36:42;18.30;;;8.48;;
77278;SDS011;66332;50.436;15.378;2024-03-08T13:41:24;16.08;;;7.60;;
77278;SDS011;66332;50.436;15.378;2024-03-08T13:46:05;17.83;;;8.00;;
77278;SDS011;66332;50.436;15.378;2024-03-08T13:50:48;14.90;;;6.88;;
77278;SDS011;66332;50.436;15.378;2024-03-08T13:55:30;19.30;;;9.15;;
77278;SDS011;66332;50.436;15.378;2024-03-08T14:00:11;14.10;;;7.28;;
77278;SDS011;66332;50.436;15.378;2024-03-08T14:04:56;16.52;;;7.70;;
77278;SDS011;66332;50.436;15.378;2024-03-08T14:09:37;17.10;;;7.88;;
77278;SDS011;66332;50.436;15.378;2024-03-08T14:14:23;15.77;;;7.68;;
77278;SDS011;66332;50.436;15.378;2024-03-08T14:19:03;18.85;;;7.88;;
77278;SDS011;66332;50.436;15.378;2024-03-08T14:23:46;16.75;;;7.70;;
77278;SDS011;66332;50.436;15.378;2024-03-08T14:28:29;17.30;;;8.63;;
77278;SDS011;66332;50.436;15.378;2024-03-08T14:33:09;15.82;;;8.05;;
77278;SDS011;66332;50.436;15.378;2024-03-08T14:37:50;17.00;;;8.73;;
77278;SDS011;66332;50.436;15.378;2024-03-08T14:42:32;17.83;;;7.72;;
77278;SDS011;66332;50.436;15.378;2024-03-08T14:47:13;12.18;;;6.03;;
77278;SDS011;66332;50.436;15.378;2024-03-08T14:51:54;13.52;;;6.13;;
77278;SDS011;66332;50.436;15.378;2024-03-08T14:56:36;16.00;;;6.72;;
77278;SDS011;66332;50.436;15.378;2024-03-08T15:01:17;14.07;;;5.20;;
77278;SDS011;66332;50.436;15.378;2024-03-08T15:06:04;12.90;;;6.47;;
77278;SDS011;66332;50.436;15.378;2024-03-08T15:10:48;12.45;;;6.22;;
77278;SDS011;66332;50.436;15.378;2024-03-08T15:15:34;14.02;;;6.05;;
77278;SDS011;66332;50.436;15.378;2024-03-08T15:20:15;14.90;;;7.13;;
77278;SDS011;66332;50.436;15.378;2024-03-08T15:25:04;13.02;;;5.60;;
77278;SDS011;66332;50.436;15.378;2024-03-08T15:29:45;13.80;;;5.47;;
77278;SDS011;66332;50.436;15.378;2024-03-08T15:34:29;13.98;;;6.15;;
77278;SDS011;66332;50.436;15.378;2024-03-08T15:39:12;10.05;;;4.53;;
77278;SDS011;66332;50.436;15.378;2024-03-08T15:43:53;10.98;;;4.63;;
77278;SDS011;66332;50.436;15.378;2024-03-08T15:48:35;12.60;;;5.57;;
77278;SDS011;66332;50.436;15.378;2024-03-08T15:53:18;11.95;;;5.35;;
77278;SDS011;66332;50.436;15.378;2024-03-08T15:57:59;11.35;;;5.22;;
77278;SDS011;66332;50.436;15.378;2024-03-08T16:02:40;11.23;;;5.13;;
77278;SDS011;66332;50.436;15.378;2024-03-08T16:07:21;12.80;;;5.55;;
77278;SDS011;66332;50.436;15.378;2024-03-08T16:12:02;12.07;;;5.32;;
77278;SDS011;66332;50.436;15.378;2024-03-08T16:16:44;12.82;;;5.57;;
77278;SDS011;66332;50.436;15.378;2024-03-08T16:21:25;13.10;;;6.47;;
77278;SDS011;66332;50.436;15.378;2024-03-08T16:26:06;13.93;;;6.03;;
77278;SDS011;66332;50.436;15.378;2024-03-08T16:30:49;12.80;;;5.70;;
77278;SDS011;66332;50.436;15.378;2024-03-08T16:35:34;17.08;;;7.45;;
77278;SDS011;66332;50.436;15.378;2024-03-08T16:40:20;13.05;;;5.75;;
77278;SDS011;66332;50.436;15.378;2024-03-08T16:45:01;13.25;;;6.05;;
77278;SDS011;66332;50.436;15.378;2024-03-08T16:49:42;14.52;;;6.38;;
77278;SDS011;66332;50.436;15.378;2024-03-08T16:54:23;15.63;;;6.68;;
77278;SDS011;66332;50.436;15.378;2024-03-08T16:59:03;13.43;;;6.20;;
77278;SDS011;66332;50.436;15.378;2024-03-08T17:03:44;15.48;;;6.45;;
77278;SDS011;66332;50.436;15.378;2024-03-08T17:08:28;16.25;;;7.03;;
77278;SDS011;66332;50.436;15.378;2024-03-08T17:13:10;15.45;;;6.93;;
77278;SDS011;66332;50.436;15.378;2024-03-08T17:17:53;13.20;;;6.85;;
77278;SDS011;66332;50.436;15.378;2024-03-08T17:22:36;19.73;;;6.95;;
77278;SDS011;66332;50.436;15.378;2024-03-08T17:27:17;13.02;;;6.22;;
77278;SDS011;66332;50.436;15.378;2024-03-08T17:31:58;12.40;;;6.35;;
77278;SDS011;66332;50.436;15.378;2024-03-08T17:36:39;13.80;;;6.78;;
77278;SDS011;66332;50.436;15.378;2024-03-08T17:46:03;15.40;;;5.93;;
77278;SDS011;66332;50.436;15.378;2024-03-08T17:50:47;12.68;;;6.53;;
77278;SDS011;66332;50.436;15.378;2024-03-08T17:55:34;14.98;;;5.95;;
77278;SDS011;66332;50.436;15.378;2024-03-08T18:00:21;11.38;;;5.60;;
77278;SDS011;66332;50.436;15.378;2024-03-08T18:05:18;12.25;;;4.80;;
77278;SDS011;66332;50.436;15.378;2024-03-08T18:10:02;10.95;;;5.00;;
77278;SDS011;66332;50.436;15.378;2024-03-08T18:14:43;17.52;;;7.47;;
77278;SDS011;66332;50.436;15.378;2024-03-08T18:19:24;17.58;;;7.90;;
77278;SDS011;66332;50.436;15.378;2024-03-08T18:24:05;20.42;;;9.18;;
77278;SDS011;66332;50.436;15.378;2024-03-08T18:28:46;16.70;;;8.50;;
77278;SDS011;66332;50.436;15.378;2024-03-08T18:33:28;16.05;;;7.05;;
77278;SDS011;66332;50.436;15.378;2024-03-08T18:38:12;17.33;;;7.80;;
77278;SDS011;66332;50.436;15.378;2024-03-08T18:42:54;17.67;;;7.13;;
77278;SDS011;66332;50.436;15.378;2024-03-08T18:47:35;27.45;;;13.27;;
77278;SDS011;66332;50.436;15.378;2024-03-08T18:52:17;32.67;;;16.30;;
77278;SDS011;66332;50.436;15.378;2024-03-08T18:56:59;24.65;;;11.63;;
77278;SDS011;66332;50.436;15.378;2024-03-08T19:01:41;19.55;;;8.23;;
77278;SDS011;66332;50.436;15.378;2024-03-08T19:06:28;15.07;;;7.07;;
77278;SDS011;66332;50.436;15.378;2024-03-08T19:11:12;17.52;;;6.75;;
77278;SDS011;66332;50.436;15.378;2024-03-08T19:15:54;17.13;;;6.38;;
77278;SDS011;66332;50.436;15.378;2024-03-08T19:20:36;18.25;;;7.38;;
77278;SDS011;66332;50.436;15.378;2024-03-08T19:25:17;17.48;;;7.00;;
77278;SDS011;66332;50.436;15.378;2024-03-08T19:29:58;14.82;;;6.75;;
77278;SDS011;66332;50.436;15.378;2024-03-08T19:34:42;18.58;;;7.80;;
77278;SDS011;66332;50.436;15.378;2024-03-08T19:39:23;17.60;;;6.80;;
77278;SDS011;66332;50.436;15.378;2024-03-08T19:44:05;19.55;;;7.78;;
77278;SDS011;66332;50.436;15.378;2024-03-08T19:48:48;16.98;;;7.25;;
77278;SDS011;66332;50.436;15.378;2024-03-08T19:53:29;15.73;;;6.55;;
77278;SDS011;66332;50.436;15.378;2024-03-08T19:58:09;18.15;;;6.80;;
77278;SDS011;66332;50.436;15.378;2024-03-08T20:02:50;19.92;;;8.25;;
77278;SDS011;66332;50.436;15.378;2024-03-08T20:07:35;15.60;;;6.60;;
77278;SDS011;66332;50.436;15.378;2024-03-08T20:12:16;16.85;;;6.72;;
77278;SDS011;66332;50.436;15.378;2024-03-08T20:16:57;20.55;;;8.68;;
77278;SDS011;66332;50.436;15.378;2024-03-08T20:21:38;16.63;;;7.25;;
77278;SDS011;66332;50.436;15.378;2024-03-08T20:26:19;18.38;;;7.80;;
77278;SDS011;66332;50.436;15.378;2024-03-08T20:31:03;16.10;;;7.00;;
77278;SDS011;66332;50.436;15.378;2024-03-08T20:35:45;16.67;;;7.38;;
77278;SDS011;66332;50.436;15.378;2024-03-08T20:40:27;20.08;;;8.52;;
77278;SDS011;66332;50.436;15.378;2024-03-08T20:45:13;14.90;;;6.22;;
77278;SDS011;66332;50.436;15.378;2024-03-08T20:49:53;19.83;;;7.90;;
77278;SDS011;66332;50.436;15.378;2024-03-08T20:59:18;17.50;;;7.35;;
77278;SDS011;66332;50.436;15.378;2024-03-08T21:03:59;20.48;;;7.70;;
77278;SDS011;66332;50.436;15.378;2024-03-08T21:08:40;15.98;;;6.95;;
77278;SDS011;66332;50.436;15.378;2024-03-08T21:13:22;18.75;;;7.63;;
77278;SDS011;66332;50.436;15.378;2024-03-08T21:18:05;20.42;;;7.80;;
77278;SDS011;66332;50.436;15.378;2024-03-08T21:22:48;15.48;;;6.80;;
77278;SDS011;66332;50.436;15.378;2024-03-08T21:27:29;15.30;;;6.90;;
77278;SDS011;66332;50.436;15.378;2024-03-08T21:32:10;17.38;;;7.97;;
77278;SDS011;66332;50.436;15.378;2024-03-08T21:36:52;22.85;;;9.13;;
77278;SDS011;66332;50.436;15.378;2024-03-08T21:41:32;16.00;;;7.18;;
77278;SDS011;66332;50.436;15.378;2024-03-08T21:46:14;17.60;;;8.07;;
77278;SDS011;66332;50.436;15.378;2024-03-08T21:50:56;19.65;;;7.22;;
77278;SDS011;66332;50.436;15.378;2024-03-08T21:55:37;18.23;;;7.38;;
77278;SDS011;66332;50.436;15.378;2024-03-08T22:00:18;21.95;;;8.65;;
77278;SDS011;66332;50.436;15.378;2024-03-08T22:04:59;20.40;;;8.40;;
77278;SDS011;66332;50.436;15.378;2024-03-08T22:09:40;20.17;;;7.82;;
77278;SDS011;66332;50.436;15.378;2024-03-08T22:14:21;22.50;;;8.83;;
77278;SDS011;66332;50.436;15.378;2024-03-08T22:19:03;23.60;;;8.93;;
77278;SDS011;66332;50.436;15.378;2024-03-08T22:23:45;21.40;;;8.52;;
77278;SDS011;66332;50.436;15.378;2024-03-08T22:33:07;19.58;;;7.75;;
77278;SDS011;66332;50.436;15.378;2024-03-08T22:37:49;18.85;;;7.32;;
77278;SDS011;66332;50.436;15.378;2024-03-08T22:42:31;20.35;;;7.20;;
77278;SDS011;66332;50.436;15.378;2024-03-08T22:47:12;13.73;;;6.28;;
77278;SDS011;66332;50.436;15.378;2024-03-08T22:51:53;17.67;;;7.82;;
77278;SDS011;66332;50.436;15.378;2024-03-08T22:56:33;14.85;;;6.13;;
77278;SDS011;66332;50.436;15.378;2024-03-08T23:01:14;12.23;;;4.88;;
77278;SDS011;66332;50.436;15.378;2024-03-08T23:05:56;12.73;;;4.90;;
77278;SDS011;66332;50.436;15.378;2024-03-08T23:10:38;15.65;;;5.15;;
77278;SDS011;66332;50.436;15.378;2024-03-08T23:15:20;11.57;;;4.80;;
77278;SDS011;66332;50.436;15.378;2024-03-08T23:20:04;15.57;;;6.03;;
77278;SDS011;66332;50.436;15.378;2024-03-08T23:24:46;12.57;;;5.20;;
77278;SDS011;66332;50.436;15.378;2024-03-08T23:29:27;13.27;;;4.82;;
77278;SDS011;66332;50.436;15.378;2024-03-08T23:34:09;13.63;;;4.90;;
77278;SDS011;66332;50.436;15.378;2024-03-08T23:38:49;12.90;;;4.53;;
77278;SDS011;66332;50.436;15.378;2024-03-08T23:43:31;14.02;;;4.65;;
77278;SDS011;66332;50.436;15.378;2024-03-08T23:48:14;12.70;;;4.88;;
77278;SDS011;66332;50.436;15.378;2024-03-08T23:52:56;14.02;;;5.22;;
77278;SDS011;66332;50.436;15.378;2024-03-08T23:57:44;12.85;;;4.88;;
